Terminal Aerodrome Forecast
Issued by NWS Upton, NY

Home | Current Version | Previous Version | Text Only | Print | Product List | Glossary On
Versions: 1 2 3 4 5 6 7 8 9 10 11 12 13 14 15 16 17 18 19 20 21 22 23 24 25 26
000
FTUS41 KOKX 050830 AAA
TAFBDR
TAF AMD
KBDR 050830Z 0509/0606 09005KT 6SM -RASN SCT030 OVC060
     FM051100 15005KT 4SM -RA SCT010 BKN020
      TEMPO 0511/0513 BKN010
     FM051300 17007KT 4SM -RA BKN010 OVC020
     FM051600 21008KT 6SM BR BKN015 BKN030
     FM051900 27010KT P6SM SCT030 SCT250
     FM052200 30008KT P6SM SKC=

USA.gov is the U.S. government's official web portal to all federal, state and local government web resources and services.